sensor_id;sensor_type;location;lat;lon;timestamp;temperature;humidity
69770;SHT30;57282;52.514;13.458;2022-10-17T00:01:24;15.20;77.33
69770;SHT30;57282;52.514;13.458;2022-10-17T00:03:51;15.18;77.15
69770;SHT30;57282;52.514;13.458;2022-10-17T00:06:17;15.16;77.10
69770;SHT30;57282;52.514;13.458;2022-10-17T00:08:44;15.18;77.18
69770;SHT30;57282;52.514;13.458;2022-10-17T00:11:15;15.18;77.16
69770;SHT30;57282;52.514;13.458;2022-10-17T00:13:43;15.15;77.17
69770;SHT30;57282;52.514;13.458;2022-10-17T00:16:10;15.15;77.30
69770;SHT30;57282;52.514;13.458;2022-10-17T00:18:37;15.15;77.32
69770;SHT30;57282;52.514;13.458;2022-10-17T00:21:04;15.13;77.44
69770;SHT30;57282;52.514;13.458;2022-10-17T00:23:32;15.18;77.22
69770;SHT30;57282;52.514;13.458;2022-10-17T00:25:59;15.16;77.54
69770;SHT30;57282;52.514;13.458;2022-10-17T00:28:28;15.16;77.38
69770;SHT30;57282;52.514;13.458;2022-10-17T00:30:55;15.16;77.47
69770;SHT30;57282;52.514;13.458;2022-10-17T00:33:22;15.20;77.26
69770;SHT30;57282;52.514;13.458;2022-10-17T00:35:49;15.23;77.05
69770;SHT30;57282;52.514;13.458;2022-10-17T00:38:15;15.19;77.24
69770;SHT30;57282;52.514;13.458;2022-10-17T00:40:42;15.15;77.25
69770;SHT30;57282;52.514;13.458;2022-10-17T00:43:14;15.13;77.62
69770;SHT30;57282;52.514;13.458;2022-10-17T00:45:43;15.13;77.60
69770;SHT30;57282;52.514;13.458;2022-10-17T00:48:10;15.13;77.70
69770;SHT30;57282;52.514;13.458;2022-10-17T00:50:41;15.12;77.81
69770;SHT30;57282;52.514;13.458;2022-10-17T00:53:11;15.15;77.81
69770;SHT30;57282;52.514;13.458;2022-10-17T00:55:44;15.15;77.73
69770;SHT30;57282;52.514;13.458;2022-10-17T00:58:15;15.15;78.01
69770;SHT30;57282;52.514;13.458;2022-10-17T01:00:45;15.12;78.29
69770;SHT30;57282;52.514;13.458;2022-10-17T01:03:12;15.18;78.05
69770;SHT30;57282;52.514;13.458;2022-10-17T01:05:41;15.18;78.16
69770;SHT30;57282;52.514;13.458;2022-10-17T01:08:08;15.19;78.40
69770;SHT30;57282;52.514;13.458;2022-10-17T01:10:46;15.18;78.50
69770;SHT30;57282;52.514;13.458;2022-10-17T01:13:24;15.20;78.61
69770;SHT30;57282;52.514;13.458;2022-10-17T01:16:03;15.22;78.73
69770;SHT30;57282;52.514;13.458;2022-10-17T01:18:47;15.23;78.71
69770;SHT30;57282;52.514;13.458;2022-10-17T01:21:32;15.20;78.68
69770;SHT30;57282;52.514;13.458;2022-10-17T01:27:36;15.16;79.25
69770;SHT30;57282;52.514;13.458;2022-10-17T01:30:56;15.15;79.41
69770;SHT30;57282;52.514;13.458;2022-10-17T01:33:45;15.10;79.48
69770;SHT30;57282;52.514;13.458;2022-10-17T01:36:25;15.15;79.76
69770;SHT30;57282;52.514;13.458;2022-10-17T01:39:01;15.13;80.45
69770;SHT30;57282;52.514;13.458;2022-10-17T01:41:39;15.13;80.65
69770;SHT30;57282;52.514;13.458;2022-10-17T01:44:12;15.12;80.80
69770;SHT30;57282;52.514;13.458;2022-10-17T01:46:45;15.12;80.87
69770;SHT30;57282;52.514;13.458;2022-10-17T01:49:19;15.10;80.99
69770;SHT30;57282;52.514;13.458;2022-10-17T01:51:54;15.10;81.40
69770;SHT30;57282;52.514;13.458;2022-10-17T01:54:26;15.08;81.55
69770;SHT30;57282;52.514;13.458;2022-10-17T01:56:59;15.10;81.68
69770;SHT30;57282;52.514;13.458;2022-10-17T01:59:38;15.10;81.80
69770;SHT30;57282;52.514;13.458;2022-10-17T02:02:09;15.10;81.98
69770;SHT30;57282;52.514;13.458;2022-10-17T02:04:40;15.08;82.08
69770;SHT30;57282;52.514;13.458;2022-10-17T02:07:08;15.08;82.16
69770;SHT30;57282;52.514;13.458;2022-10-17T02:09:38;15.05;82.01
69770;SHT30;57282;52.514;13.458;2022-10-17T02:12:19;15.03;82.07
69770;SHT30;57282;52.514;13.458;2022-10-17T02:15:02;14.96;82.35
69770;SHT30;57282;52.514;13.458;2022-10-17T02:17:47;14.95;82.56
69770;SHT30;57282;52.514;13.458;2022-10-17T02:20:22;14.91;82.81
69770;SHT30;57282;52.514;13.458;2022-10-17T02:22:54;14.92;83.22
69770;SHT30;57282;52.514;13.458;2022-10-17T02:25:31;14.91;83.36
69770;SHT30;57282;52.514;13.458;2022-10-17T02:28:10;14.93;83.30
69770;SHT30;57282;52.514;13.458;2022-10-17T02:30:50;14.93;83.28
69770;SHT30;57282;52.514;13.458;2022-10-17T02:33:25;14.92;83.44
69770;SHT30;57282;52.514;13.458;2022-10-17T02:35:59;14.93;83.55
69770;SHT30;57282;52.514;13.458;2022-10-17T02:38:31;14.93;83.48
69770;SHT30;57282;52.514;13.458;2022-10-17T02:40:59;14.95;83.48
69770;SHT30;57282;52.514;13.458;2022-10-17T02:43:27;14.92;83.49
69770;SHT30;57282;52.514;13.458;2022-10-17T02:45:55;14.91;83.23
69770;SHT30;57282;52.514;13.458;2022-10-17T02:48:28;14.96;83.35
69770;SHT30;57282;52.514;13.458;2022-10-17T02:51:06;14.91;83.28
69770;SHT30;57282;52.514;13.458;2022-10-17T02:53:45;14.92;83.25
69770;SHT30;57282;52.514;13.458;2022-10-17T02:56:19;14.92;83.34
69770;SHT30;57282;52.514;13.458;2022-10-17T02:58:50;14.92;83.20
69770;SHT30;57282;52.514;13.458;2022-10-17T03:01:21;14.92;83.30
69770;SHT30;57282;52.514;13.458;2022-10-17T03:03:49;14.93;83.27
69770;SHT30;57282;52.514;13.458;2022-10-17T03:06:16;14.89;83.53
69770;SHT30;57282;52.514;13.458;2022-10-17T03:08:43;14.91;83.56
69770;SHT30;57282;52.514;13.458;2022-10-17T03:11:09;14.89;83.59
69770;SHT30;57282;52.514;13.458;2022-10-17T03:13:36;14.89;83.72
69770;SHT30;57282;52.514;13.458;2022-10-17T03:16:02;14.92;83.74
69770;SHT30;57282;52.514;13.458;2022-10-17T03:18:30;14.91;83.64
69770;SHT30;57282;52.514;13.458;2022-10-17T03:20:58;14.92;83.46
69770;SHT30;57282;52.514;13.458;2022-10-17T03:23:24;14.89;83.62
69770;SHT30;57282;52.514;13.458;2022-10-17T03:25:51;14.91;83.50
69770;SHT30;57282;52.514;13.458;2022-10-17T03:28:20;14.91;83.51
69770;SHT30;57282;52.514;13.458;2022-10-17T03:30:47;14.87;83.57
69770;SHT30;57282;52.514;13.458;2022-10-17T03:33:14;14.85;83.55
69770;SHT30;57282;52.514;13.458;2022-10-17T03:35:40;14.85;83.59
69770;SHT30;57282;52.514;13.458;2022-10-17T03:38:08;14.85;83.49
69770;SHT30;57282;52.514;13.458;2022-10-17T03:40:35;14.88;83.62
69770;SHT30;57282;52.514;13.458;2022-10-17T03:43:02;14.85;83.59
69770;SHT30;57282;52.514;13.458;2022-10-17T03:45:29;14.87;83.66
69770;SHT30;57282;52.514;13.458;2022-10-17T03:47:57;14.87;83.54
69770;SHT30;57282;52.514;13.458;2022-10-17T03:50:24;14.88;83.59
69770;SHT30;57282;52.514;13.458;2022-10-17T03:52:51;14.84;83.83
69770;SHT30;57282;52.514;13.458;2022-10-17T03:55:19;14.87;83.96
69770;SHT30;57282;52.514;13.458;2022-10-17T03:57:45;14.84;83.97
69770;SHT30;57282;52.514;13.458;2022-10-17T04:00:12;14.85;84.10
69770;SHT30;57282;52.514;13.458;2022-10-17T04:02:40;14.80;84.06
69770;SHT30;57282;52.514;13.458;2022-10-17T04:05:07;14.80;84.26
69770;SHT30;57282;52.514;13.458;2022-10-17T04:07:34;14.80;84.36
69770;SHT30;57282;52.514;13.458;2022-10-17T04:10:01;14.78;84.41
69770;SHT30;57282;52.514;13.458;2022-10-17T04:12:31;14.80;84.51
69770;SHT30;57282;52.514;13.458;2022-10-17T04:15:00;14.81;84.66
69770;SHT30;57282;52.514;13.458;2022-10-17T04:17:29;14.77;84.70
69770;SHT30;57282;52.514;13.458;2022-10-17T04:19:55;14.78;84.76
69770;SHT30;57282;52.514;13.458;2022-10-17T04:22:22;14.77;84.97
69770;SHT30;57282;52.514;13.458;2022-10-17T04:24:49;14.77;84.99
69770;SHT30;57282;52.514;13.458;2022-10-17T04:27:15;14.77;85.03
69770;SHT30;57282;52.514;13.458;2022-10-17T04:29:43;14.77;85.27
69770;SHT30;57282;52.514;13.458;2022-10-17T04:32:10;14.74;85.41
69770;SHT30;57282;52.514;13.458;2022-10-17T04:34:36;14.75;85.39
69770;SHT30;57282;52.514;13.458;2022-10-17T04:37:03;14.75;85.33
69770;SHT30;57282;52.514;13.458;2022-10-17T04:39:30;14.75;85.54
69770;SHT30;57282;52.514;13.458;2022-10-17T04:41:56;14.78;85.42
69770;SHT30;57282;52.514;13.458;2022-10-17T04:44:23;14.75;85.58
69770;SHT30;57282;52.514;13.458;2022-10-17T04:46:51;14.77;85.64
69770;SHT30;57282;52.514;13.458;2022-10-17T04:49:18;14.77;85.60
69770;SHT30;57282;52.514;13.458;2022-10-17T04:51:44;14.75;85.64
69770;SHT30;57282;52.514;13.458;2022-10-17T04:54:11;14.74;85.63
69770;SHT30;57282;52.514;13.458;2022-10-17T04:56:38;14.74;85.54
69770;SHT30;57282;52.514;13.458;2022-10-17T04:59:04;14.74;85.63
69770;SHT30;57282;52.514;13.458;2022-10-17T05:01:31;14.71;85.67
69770;SHT30;57282;52.514;13.458;2022-10-17T05:03:59;14.71;85.75
69770;SHT30;57282;52.514;13.458;2022-10-17T05:06:26;14.70;85.81
69770;SHT30;57282;52.514;13.458;2022-10-17T05:08:53;14.68;85.88
69770;SHT30;57282;52.514;13.458;2022-10-17T05:11:23;14.68;85.94
69770;SHT30;57282;52.514;13.458;2022-10-17T05:13:51;14.68;86.00
69770;SHT30;57282;52.514;13.458;2022-10-17T05:16:20;14.67;86.00
69770;SHT30;57282;52.514;13.458;2022-10-17T05:18:48;14.64;86.17
69770;SHT30;57282;52.514;13.458;2022-10-17T05:21:17;14.64;86.28
69770;SHT30;57282;52.514;13.458;2022-10-17T05:23:44;14.67;86.22
69770;SHT30;57282;52.514;13.458;2022-10-17T05:26:12;14.65;86.10
69770;SHT30;57282;52.514;13.458;2022-10-17T05:28:39;14.64;86.10
69770;SHT30;57282;52.514;13.458;2022-10-17T05:31:07;14.61;86.20
69770;SHT30;57282;52.514;13.458;2022-10-17T05:33:35;14.63;86.37
69770;SHT30;57282;52.514;13.458;2022-10-17T05:36:03;14.63;86.43
69770;SHT30;57282;52.514;13.458;2022-10-17T05:38:32;14.64;86.40
69770;SHT30;57282;52.514;13.458;2022-10-17T05:40:59;14.63;86.50
69770;SHT30;57282;52.514;13.458;2022-10-17T05:43:27;14.65;86.57
69770;SHT30;57282;52.514;13.458;2022-10-17T05:45:54;14.63;86.77
69770;SHT30;57282;52.514;13.458;2022-10-17T05:48:22;14.65;86.64
69770;SHT30;57282;52.514;13.458;2022-10-17T05:50:56;14.67;86.59
69770;SHT30;57282;52.514;13.458;2022-10-17T05:53:24;14.63;86.61
69770;SHT30;57282;52.514;13.458;2022-10-17T05:55:56;14.65;86.50
69770;SHT30;57282;52.514;13.458;2022-10-17T05:58:24;14.64;86.48
69770;SHT30;57282;52.514;13.458;2022-10-17T06:00:51;14.64;86.57
69770;SHT30;57282;52.514;13.458;2022-10-17T06:03:22;14.68;86.62
69770;SHT30;57282;52.514;13.458;2022-10-17T06:05:48;14.64;86.67
69770;SHT30;57282;52.514;13.458;2022-10-17T06:08:16;14.65;86.70
69770;SHT30;57282;52.514;13.458;2022-10-17T06:10:42;14.65;86.74
69770;SHT30;57282;52.514;13.458;2022-10-17T06:13:13;14.64;86.75
69770;SHT30;57282;52.514;13.458;2022-10-17T06:15:40;14.67;86.90
69770;SHT30;57282;52.514;13.458;2022-10-17T06:18:06;14.70;86.81
69770;SHT30;57282;52.514;13.458;2022-10-17T06:20:33;14.70;86.78
69770;SHT30;57282;52.514;13.458;2022-10-17T06:23:00;14.71;86.69
69770;SHT30;57282;52.514;13.458;2022-10-17T06:25:30;14.71;86.72
69770;SHT30;57282;52.514;13.458;2022-10-17T06:27:57;14.74;86.69
69770;SHT30;57282;52.514;13.458;2022-10-17T06:30:24;14.74;86.61
69770;SHT30;57282;52.514;13.458;2022-10-17T06:32:52;14.77;86.60
69770;SHT30;57282;52.514;13.458;2022-10-17T06:35:19;14.78;86.75
69770;SHT30;57282;52.514;13.458;2022-10-17T06:37:46;14.80;86.73
69770;SHT30;57282;52.514;13.458;2022-10-17T06:40:13;14.81;86.70
69770;SHT30;57282;52.514;13.458;2022-10-17T06:42:42;14.85;86.67
69770;SHT30;57282;52.514;13.458;2022-10-17T06:45:09;14.85;86.72
69770;SHT30;57282;52.514;13.458;2022-10-17T06:47:38;14.89;86.68
69770;SHT30;57282;52.514;13.458;2022-10-17T06:50:05;14.91;86.59
69770;SHT30;57282;52.514;13.458;2022-10-17T06:52:32;14.92;86.65
69770;SHT30;57282;52.514;13.458;2022-10-17T06:54:58;14.95;86.69
69770;SHT30;57282;52.514;13.458;2022-10-17T06:57:26;14.96;86.74
69770;SHT30;57282;52.514;13.458;2022-10-17T06:59:53;14.99;86.67
69770;SHT30;57282;52.514;13.458;2022-10-17T07:02:21;15.01;86.53
69770;SHT30;57282;52.514;13.458;2022-10-17T07:04:50;15.01;86.66
69770;SHT30;57282;52.514;13.458;2022-10-17T07:07:16;15.05;86.64
69770;SHT30;57282;52.514;13.458;2022-10-17T07:09:43;15.05;86.61
69770;SHT30;57282;52.514;13.458;2022-10-17T07:12:10;15.06;86.63
69770;SHT30;57282;52.514;13.458;2022-10-17T07:14:37;15.10;86.67
69770;SHT30;57282;52.514;13.458;2022-10-17T07:17:03;15.13;86.60
69770;SHT30;57282;52.514;13.458;2022-10-17T07:19:30;15.13;86.65
69770;SHT30;57282;52.514;13.458;2022-10-17T07:21:58;15.15;86.70
69770;SHT30;57282;52.514;13.458;2022-10-17T07:24:24;15.18;86.59
69770;SHT30;57282;52.514;13.458;2022-10-17T07:26:51;15.22;86.58
69770;SHT30;57282;52.514;13.458;2022-10-17T07:29:17;15.22;86.63
69770;SHT30;57282;52.514;13.458;2022-10-17T07:31:44;15.26;86.47
69770;SHT30;57282;52.514;13.458;2022-10-17T07:34:13;15.29;86.45
69770;SHT30;57282;52.514;13.458;2022-10-17T07:36:39;15.33;86.26
69770;SHT30;57282;52.514;13.458;2022-10-17T07:39:07;15.36;86.06
69770;SHT30;57282;52.514;13.458;2022-10-17T07:41:34;15.39;86.08
69770;SHT30;57282;52.514;13.458;2022-10-17T07:44:01;15.46;85.93
69770;SHT30;57282;52.514;13.458;2022-10-17T07:46:27;15.49;85.92
69770;SHT30;57282;52.514;13.458;2022-10-17T07:48:54;15.53;85.69
69770;SHT30;57282;52.514;13.458;2022-10-17T07:51:20;15.56;85.68
69770;SHT30;57282;52.514;13.458;2022-10-17T07:53:47;15.60;85.60
69770;SHT30;57282;52.514;13.458;2022-10-17T07:56:15;15.64;85.38
69770;SHT30;57282;52.514;13.458;2022-10-17T07:58:42;15.68;85.27
69770;SHT30;57282;52.514;13.458;2022-10-17T08:01:10;15.73;85.05
69770;SHT30;57282;52.514;13.458;2022-10-17T08:03:39;15.76;84.83
69770;SHT30;57282;52.514;13.458;2022-10-17T08:06:06;15.81;84.68
69770;SHT30;57282;52.514;13.458;2022-10-17T08:08:32;15.88;84.38
69770;SHT30;57282;52.514;13.458;2022-10-17T08:11:01;15.93;84.32
69770;SHT30;57282;52.514;13.458;2022-10-17T08:13:31;15.97;84.19
69770;SHT30;57282;52.514;13.458;2022-10-17T08:15:59;16.00;84.20
69770;SHT30;57282;52.514;13.458;2022-10-17T08:18:26;16.07;84.08
69770;SHT30;57282;52.514;13.458;2022-10-17T08:20:52;16.08;83.99
69770;SHT30;57282;52.514;13.458;2022-10-17T08:23:19;16.15;83.82
69770;SHT30;57282;52.514;13.458;2022-10-17T08:25:46;16.19;83.47
69770;SHT30;57282;52.514;13.458;2022-10-17T08:28:12;16.29;83.05
69770;SHT30;57282;52.514;13.458;2022-10-17T08:30:40;16.33;82.70
69770;SHT30;57282;52.514;13.458;2022-10-17T08:33:07;16.41;82.47
69770;SHT30;57282;52.514;13.458;2022-10-17T08:35:33;16.43;82.34
69770;SHT30;57282;52.514;13.458;2022-10-17T08:38:00;16.52;82.05
69770;SHT30;57282;52.514;13.458;2022-10-17T08:40:29;16.55;81.81
69770;SHT30;57282;52.514;13.458;2022-10-17T08:43:25;16.62;81.85
69770;SHT30;57282;52.514;13.458;2022-10-17T08:46:00;16.69;81.72
69770;SHT30;57282;52.514;13.458;2022-10-17T08:48:32;16.70;81.75
69770;SHT30;57282;52.514;13.458;2022-10-17T08:51:05;16.73;81.68
69770;SHT30;57282;52.514;13.458;2022-10-17T08:53:39;16.80;81.59
69770;SHT30;57282;52.514;13.458;2022-10-17T08:56:16;16.85;81.36
69770;SHT30;57282;52.514;13.458;2022-10-17T08:58:45;16.95;80.85
69770;SHT30;57282;52.514;13.458;2022-10-17T09:01:25;17.01;80.70
69770;SHT30;57282;52.514;13.458;2022-10-17T09:04:10;17.07;80.69
69770;SHT30;57282;52.514;13.458;2022-10-17T09:06:56;17.14;80.62
69770;SHT30;57282;52.514;13.458;2022-10-17T09:09:34;17.24;80.35
69770;SHT30;57282;52.514;13.458;2022-10-17T09:12:15;17.32;79.81
69770;SHT30;57282;52.514;13.458;2022-10-17T09:18:00;17.49;79.16
69770;SHT30;57282;52.514;13.458;2022-10-17T09:20:37;17.58;78.90
69770;SHT30;57282;52.514;13.458;2022-10-17T09:23:10;17.63;78.77
69770;SHT30;57282;52.514;13.458;2022-10-17T09:25:41;17.70;78.60
69770;SHT30;57282;52.514;13.458;2022-10-17T09:28:15;17.76;78.20
69770;SHT30;57282;52.514;13.458;2022-10-17T09:30:46;17.85;78.16
69770;SHT30;57282;52.514;13.458;2022-10-17T09:33:25;17.87;77.84
69770;SHT30;57282;52.514;13.458;2022-10-17T09:35:55;17.99;77.39
69770;SHT30;57282;52.514;13.458;2022-10-17T09:38:26;18.07;77.15
69770;SHT30;57282;52.514;13.458;2022-10-17T09:41:01;18.11;76.82
69770;SHT30;57282;52.514;13.458;2022-10-17T09:43:28;18.24;76.30
69770;SHT30;57282;52.514;13.458;2022-10-17T09:46:00;18.28;76.34
69770;SHT30;57282;52.514;13.458;2022-10-17T09:48:37;18.38;75.79
69770;SHT30;57282;52.514;13.458;2022-10-17T09:51:09;18.43;75.77
69770;SHT30;57282;52.514;13.458;2022-10-17T09:53:40;18.48;75.47
69770;SHT30;57282;52.514;13.458;2022-10-17T09:56:12;18.51;75.41
69770;SHT30;57282;52.514;13.458;2022-10-17T09:58:42;18.57;75.34
69770;SHT30;57282;52.514;13.458;2022-10-17T10:01:18;18.62;75.24
69770;SHT30;57282;52.514;13.458;2022-10-17T10:04:07;18.71;74.99
69770;SHT30;57282;52.514;13.458;2022-10-17T10:06:35;18.75;74.98
69770;SHT30;57282;52.514;13.458;2022-10-17T10:09:02;18.81;74.92
69770;SHT30;57282;52.514;13.458;2022-10-17T10:11:44;18.95;73.76
69770;SHT30;57282;52.514;13.458;2022-10-17T10:14:20;19.02;73.01
69770;SHT30;57282;52.514;13.458;2022-10-17T10:16:50;19.10;73.14
69770;SHT30;57282;52.514;13.458;2022-10-17T10:19:25;19.19;72.60
69770;SHT30;57282;52.514;13.458;2022-10-17T10:21:55;19.26;72.54
69770;SHT30;57282;52.514;13.458;2022-10-17T10:24:23;19.34;72.46
69770;SHT30;57282;52.514;13.458;2022-10-17T10:26:52;19.34;72.46
69770;SHT30;57282;52.514;13.458;2022-10-17T10:29:25;19.46;71.88
69770;SHT30;57282;52.514;13.458;2022-10-17T10:31:56;19.49;71.61
69770;SHT30;57282;52.514;13.458;2022-10-17T10:34:34;19.55;71.75
69770;SHT30;57282;52.514;13.458;2022-10-17T10:37:05;19.60;71.56
69770;SHT30;57282;52.514;13.458;2022-10-17T10:39:47;19.64;71.81
69770;SHT30;57282;52.514;13.458;2022-10-17T10:42:24;19.67;71.57
69770;SHT30;57282;52.514;13.458;2022-10-17T10:44:57;19.73;71.55
69770;SHT30;57282;52.514;13.458;2022-10-17T10:47:27;19.84;70.93
69770;SHT30;57282;52.514;13.458;2022-10-17T10:50:16;19.88;69.98
69770;SHT30;57282;52.514;13.458;2022-10-17T10:52:52;19.95;69.47
69770;SHT30;57282;52.514;13.458;2022-10-17T10:55:29;20.02;69.11
69770;SHT30;57282;52.514;13.458;2022-10-17T10:58:13;20.05;68.65
69770;SHT30;57282;52.514;13.458;2022-10-17T11:00:48;20.13;68.39
69770;SHT30;57282;52.514;13.458;2022-10-17T11:03:20;20.19;68.16
69770;SHT30;57282;52.514;13.458;2022-10-17T11:05:56;20.28;67.37
69770;SHT30;57282;52.514;13.458;2022-10-17T11:08:34;20.34;67.24
69770;SHT30;57282;52.514;13.458;2022-10-17T11:11:11;20.47;66.39
69770;SHT30;57282;52.514;13.458;2022-10-17T11:13:46;20.53;66.66
69770;SHT30;57282;52.514;13.458;2022-10-17T11:16:24;20.59;66.37
69770;SHT30;57282;52.514;13.458;2022-10-17T11:19:03;20.61;66.09
69770;SHT30;57282;52.514;13.458;2022-10-17T11:21:44;20.64;66.21
69770;SHT30;57282;52.514;13.458;2022-10-17T11:24:17;20.69;66.74
69770;SHT30;57282;52.514;13.458;2022-10-17T11:26:53;20.73;66.82
69770;SHT30;57282;52.514;13.458;2022-10-17T11:29:27;20.79;67.01
69770;SHT30;57282;52.514;13.458;2022-10-17T11:31:58;20.81;67.13
69770;SHT30;57282;52.514;13.458;2022-10-17T11:34:30;20.88;67.27
69770;SHT30;57282;52.514;13.458;2022-10-17T11:37:05;20.97;66.20
69770;SHT30;57282;52.514;13.458;2022-10-17T11:39:43;21.07;65.30
69770;SHT30;57282;52.514;13.458;2022-10-17T11:42:17;21.28;64.90
69770;SHT30;57282;52.514;13.458;2022-10-17T11:44:52;21.29;64.99
69770;SHT30;57282;52.514;13.458;2022-10-17T11:47:32;21.28;65.28
69770;SHT30;57282;52.514;13.458;2022-10-17T11:50:15;21.34;64.25
69770;SHT30;57282;52.514;13.458;2022-10-17T11:52:50;21.38;64.42
69770;SHT30;57282;52.514;13.458;2022-10-17T11:55:22;21.41;63.65
69770;SHT30;57282;52.514;13.458;2022-10-17T11:58:02;21.42;63.50
69770;SHT30;57282;52.514;13.458;2022-10-17T12:00:48;21.42;63.76
69770;SHT30;57282;52.514;13.458;2022-10-17T12:03:29;21.45;63.91
69770;SHT30;57282;52.514;13.458;2022-10-17T12:06:12;21.42;63.84
69770;SHT30;57282;52.514;13.458;2022-10-17T12:08:53;21.42;63.46
69770;SHT30;57282;52.514;13.458;2022-10-17T12:11:32;21.55;62.73
69770;SHT30;57282;52.514;13.458;2022-10-17T12:14:37;21.60;63.01
69770;SHT30;57282;52.514;13.458;2022-10-17T12:17:22;21.66;62.58
69770;SHT30;57282;52.514;13.458;2022-10-17T12:20:24;21.70;62.14
69770;SHT30;57282;52.514;13.458;2022-10-17T12:23:04;21.73;62.11
69770;SHT30;57282;52.514;13.458;2022-10-17T12:25:51;21.73;62.52
69770;SHT30;57282;52.514;13.458;2022-10-17T12:28:24;21.75;62.52
69770;SHT30;57282;52.514;13.458;2022-10-17T12:30:56;21.75;62.55
69770;SHT30;57282;52.514;13.458;2022-10-17T12:33:31;21.89;62.01
69770;SHT30;57282;52.514;13.458;2022-10-17T12:39:41;22.03;61.40
69770;SHT30;57282;52.514;13.458;2022-10-17T12:42:31;22.08;61.15
69770;SHT30;57282;52.514;13.458;2022-10-17T12:45:47;22.11;61.29
69770;SHT30;57282;52.514;13.458;2022-10-17T12:52:22;22.27;60.65
69770;SHT30;57282;52.514;13.458;2022-10-17T12:55:04;22.24;60.99
69770;SHT30;57282;52.514;13.458;2022-10-17T12:57:39;22.22;60.37
69770;SHT30;57282;52.514;13.458;2022-10-17T13:00:16;22.28;59.88
69770;SHT30;57282;52.514;13.458;2022-10-17T13:02:46;22.30;59.76
69770;SHT30;57282;52.514;13.458;2022-10-17T13:05:18;22.33;59.89
69770;SHT30;57282;52.514;13.458;2022-10-17T13:07:51;22.33;59.71
69770;SHT30;57282;52.514;13.458;2022-10-17T13:10:22;22.37;59.70
69770;SHT30;57282;52.514;13.458;2022-10-17T13:12:54;22.35;59.46
69770;SHT30;57282;52.514;13.458;2022-10-17T13:15:28;22.31;59.85
69770;SHT30;57282;52.514;13.458;2022-10-17T13:17:57;22.28;60.11
69770;SHT30;57282;52.514;13.458;2022-10-17T13:20:28;22.30;60.01
69770;SHT30;57282;52.514;13.458;2022-10-17T13:22:56;22.34;59.74
69770;SHT30;57282;52.514;13.458;2022-10-17T13:25:24;22.35;59.78
69770;SHT30;57282;52.514;13.458;2022-10-17T13:28:05;22.34;59.68
69770;SHT30;57282;52.514;13.458;2022-10-17T13:30:36;22.34;59.96
69770;SHT30;57282;52.514;13.458;2022-10-17T13:33:03;22.33;59.59
69770;SHT30;57282;52.514;13.458;2022-10-17T13:35:45;22.30;59.93
69770;SHT30;57282;52.514;13.458;2022-10-17T13:38:14;22.28;59.87
69770;SHT30;57282;52.514;13.458;2022-10-17T13:40:42;22.28;59.86
69770;SHT30;57282;52.514;13.458;2022-10-17T13:43:15;22.28;59.88
69770;SHT30;57282;52.514;13.458;2022-10-17T13:45:45;22.24;60.23
69770;SHT30;57282;52.514;13.458;2022-10-17T13:48:18;22.30;59.87
69770;SHT30;57282;52.514;13.458;2022-10-17T13:50:47;22.28;60.17
69770;SHT30;57282;52.514;13.458;2022-10-17T13:53:21;22.24;60.45
69770;SHT30;57282;52.514;13.458;2022-10-17T13:55:56;22.24;60.54
69770;SHT30;57282;52.514;13.458;2022-10-17T13:58:29;22.28;60.37
69770;SHT30;57282;52.514;13.458;2022-10-17T14:01:04;22.30;59.97
69770;SHT30;57282;52.514;13.458;2022-10-17T14:03:32;22.30;60.33
69770;SHT30;57282;52.514;13.458;2022-10-17T14:06:06;22.24;60.32
69770;SHT30;57282;52.514;13.458;2022-10-17T14:08:46;22.27;60.23
69770;SHT30;57282;52.514;13.458;2022-10-17T14:11:22;22.21;60.63
69770;SHT30;57282;52.514;13.458;2022-10-17T14:13:55;22.17;60.53
69770;SHT30;57282;52.514;13.458;2022-10-17T14:16:24;22.20;59.98
69770;SHT30;57282;52.514;13.458;2022-10-17T14:18:52;22.22;60.24
69770;SHT30;57282;52.514;13.458;2022-10-17T14:21:23;22.27;60.02
69770;SHT30;57282;52.514;13.458;2022-10-17T14:24:11;22.27;60.14
69770;SHT30;57282;52.514;13.458;2022-10-17T14:26:51;22.22;60.50
69770;SHT30;57282;52.514;13.458;2022-10-17T14:29:24;22.20;60.59
69770;SHT30;57282;52.514;13.458;2022-10-17T14:31:58;22.15;60.67
69770;SHT30;57282;52.514;13.458;2022-10-17T14:34:29;22.11;61.01
69770;SHT30;57282;52.514;13.458;2022-10-17T14:36:59;22.10;61.12
69770;SHT30;57282;52.514;13.458;2022-10-17T14:39:26;22.08;61.13
69770;SHT30;57282;52.514;13.458;2022-10-17T14:41:54;22.10;61.19
69770;SHT30;57282;52.514;13.458;2022-10-17T14:44:26;22.11;61.25
69770;SHT30;57282;52.514;13.458;2022-10-17T14:46:58;22.07;61.23
69770;SHT30;57282;52.514;13.458;2022-10-17T14:49:33;22.03;61.42
69770;SHT30;57282;52.514;13.458;2022-10-17T14:54:57;21.97;61.86
69770;SHT30;57282;52.514;13.458;2022-10-17T14:57:33;21.97;62.14
69770;SHT30;57282;52.514;13.458;2022-10-17T15:00:12;21.94;62.19
69770;SHT30;57282;52.514;13.458;2022-10-17T15:02:40;21.92;62.22
69770;SHT30;57282;52.514;13.458;2022-10-17T15:05:07;21.90;62.36
69770;SHT30;57282;52.514;13.458;2022-10-17T15:07:34;21.87;62.57
69770;SHT30;57282;52.514;13.458;2022-10-17T15:10:00;21.82;63.05
69770;SHT30;57282;52.514;13.458;2022-10-17T15:12:27;21.83;62.96
69770;SHT30;57282;52.514;13.458;2022-10-17T15:14:55;21.79;63.10
69770;SHT30;57282;52.514;13.458;2022-10-17T15:17:25;21.75;63.30
69770;SHT30;57282;52.514;13.458;2022-10-17T15:19:53;21.72;63.37
69770;SHT30;57282;52.514;13.458;2022-10-17T15:22:21;21.66;63.60
69770;SHT30;57282;52.514;13.458;2022-10-17T15:24:48;21.63;63.59
69770;SHT30;57282;52.514;13.458;2022-10-17T15:27:16;21.62;63.90
69770;SHT30;57282;52.514;13.458;2022-10-17T15:29:47;21.58;64.06
69770;SHT30;57282;52.514;13.458;2022-10-17T15:32:15;21.58;64.17
69770;SHT30;57282;52.514;13.458;2022-10-17T15:34:43;21.53;64.41
69770;SHT30;57282;52.514;13.458;2022-10-17T15:37:16;21.50;64.43
69770;SHT30;57282;52.514;13.458;2022-10-17T15:39:47;21.49;64.60
69770;SHT30;57282;52.514;13.458;2022-10-17T15:42:17;21.49;64.69
69770;SHT30;57282;52.514;13.458;2022-10-17T15:44:44;21.45;64.85
69770;SHT30;57282;52.514;13.458;2022-10-17T15:47:21;21.41;65.07
69770;SHT30;57282;52.514;13.458;2022-10-17T15:49:51;21.39;65.18
69770;SHT30;57282;52.514;13.458;2022-10-17T15:52:19;21.32;65.59
69770;SHT30;57282;52.514;13.458;2022-10-17T15:54:46;21.32;65.87
69770;SHT30;57282;52.514;13.458;2022-10-17T15:57:16;21.27;65.78
69770;SHT30;57282;52.514;13.458;2022-10-17T15:59:45;21.25;66.22